sensor_id;sensor_type;location;lat;lon;timestamp;P1;durP1;ratioP1;P2;durP2;ratioP2
33824;SDS011;20127;48.962;8.342;2023-04-08T00:01:39;3.28;;;3.00;;
33824;SDS011;20127;48.962;8.342;2023-04-08T00:04:42;3.00;;;2.80;;
33824;SDS011;20127;48.962;8.342;2023-04-08T00:07:44;3.63;;;3.42;;
33824;SDS011;20127;48.962;8.342;2023-04-08T00:10:45;3.25;;;3.05;;
33824;SDS011;20127;48.962;8.342;2023-04-08T00:13:47;3.80;;;3.50;;
33824;SDS011;20127;48.962;8.342;2023-04-08T00:16:49;2.67;;;2.47;;
33824;SDS011;20127;48.962;8.342;2023-04-08T00:19:55;3.63;;;3.33;;
33824;SDS011;20127;48.962;8.342;2023-04-08T00:22:57;3.55;;;3.25;;
33824;SDS011;20127;48.962;8.342;2023-04-08T00:25:59;3.90;;;3.60;;
33824;SDS011;20127;48.962;8.342;2023-04-08T00:29:01;3.13;;;2.92;;
33824;SDS011;20127;48.962;8.342;2023-04-08T00:32:02;3.83;;;3.53;;
33824;SDS011;20127;48.962;8.342;2023-04-08T00:35:06;3.58;;;3.28;;
33824;SDS011;20127;48.962;8.342;2023-04-08T00:38:08;3.65;;;3.38;;
33824;SDS011;20127;48.962;8.342;2023-04-08T00:41:10;3.25;;;3.05;;
33824;SDS011;20127;48.962;8.342;2023-04-08T00:44:12;4.22;;;3.80;;
33824;SDS011;20127;48.962;8.342;2023-04-08T00:47:14;3.53;;;3.22;;
33824;SDS011;20127;48.962;8.342;2023-04-08T00:50:17;4.18;;;3.88;;
33824;SDS011;20127;48.962;8.342;2023-04-08T00:53:29;3.28;;;3.00;;
33824;SDS011;20127;48.962;8.342;2023-04-08T00:56:33;3.85;;;3.60;;
33824;SDS011;20127;48.962;8.342;2023-04-08T00:59:35;6.13;;;5.57;;
33824;SDS011;20127;48.962;8.342;2023-04-08T01:02:41;3.30;;;3.10;;
33824;SDS011;20127;48.962;8.342;2023-04-08T01:05:50;4.60;;;3.40;;
33824;SDS011;20127;48.962;8.342;2023-04-08T01:08:59;3.70;;;3.42;;
33824;SDS011;20127;48.962;8.342;2023-04-08T01:12:05;3.60;;;3.30;;
33824;SDS011;20127;48.962;8.342;2023-04-08T01:15:10;3.83;;;2.92;;
33824;SDS011;20127;48.962;8.342;2023-04-08T01:18:12;3.75;;;3.45;;
33824;SDS011;20127;48.962;8.342;2023-04-08T01:21:16;3.15;;;2.95;;
33824;SDS011;20127;48.962;8.342;2023-04-08T01:24:22;3.85;;;3.55;;
33824;SDS011;20127;48.962;8.342;2023-04-08T01:27:30;3.35;;;3.05;;
33824;SDS011;20127;48.962;8.342;2023-04-08T01:30:33;4.40;;;4.10;;
33824;SDS011;20127;48.962;8.342;2023-04-08T01:33:37;3.38;;;3.17;;
33824;SDS011;20127;48.962;8.342;2023-04-08T01:36:39;3.20;;;2.97;;
33824;SDS011;20127;48.962;8.342;2023-04-08T01:39:44;3.35;;;3.05;;
33824;SDS011;20127;48.962;8.342;2023-04-08T01:42:48;3.25;;;2.95;;
33824;SDS011;20127;48.962;8.342;2023-04-08T01:45:52;3.60;;;3.30;;
33824;SDS011;20127;48.962;8.342;2023-04-08T01:48:57;3.95;;;2.90;;
33824;SDS011;20127;48.962;8.342;2023-04-08T01:52:00;3.35;;;3.05;;
33824;SDS011;20127;48.962;8.342;2023-04-08T01:55:03;3.38;;;3.13;;
33824;SDS011;20127;48.962;8.342;2023-04-08T01:58:07;3.25;;;3.00;;
33824;SDS011;20127;48.962;8.342;2023-04-08T02:01:13;3.20;;;2.95;;
33824;SDS011;20127;48.962;8.342;2023-04-08T02:04:19;3.30;;;3.10;;
33824;SDS011;20127;48.962;8.342;2023-04-08T02:07:21;3.67;;;2.67;;
33824;SDS011;20127;48.962;8.342;2023-04-08T02:10:23;2.65;;;2.45;;
33824;SDS011;20127;48.962;8.342;2023-04-08T02:13:27;4.53;;;3.70;;
33824;SDS011;20127;48.962;8.342;2023-04-08T02:16:30;3.83;;;3.53;;
33824;SDS011;20127;48.962;8.342;2023-04-08T02:19:40;3.83;;;3.53;;
33824;SDS011;20127;48.962;8.342;2023-04-08T02:25:49;4.03;;;3.72;;
33824;SDS011;20127;48.962;8.342;2023-04-08T02:28:56;3.47;;;3.28;;
33824;SDS011;20127;48.962;8.342;2023-04-08T02:31:58;3.92;;;3.63;;
33824;SDS011;20127;48.962;8.342;2023-04-08T02:35:02;3.30;;;3.10;;
33824;SDS011;20127;48.962;8.342;2023-04-08T02:38:05;3.60;;;3.30;;
33824;SDS011;20127;48.962;8.342;2023-04-08T02:41:07;3.20;;;3.00;;
33824;SDS011;20127;48.962;8.342;2023-04-08T02:44:10;5.60;;;5.05;;
33824;SDS011;20127;48.962;8.342;2023-04-08T02:47:12;4.68;;;4.28;;
33824;SDS011;20127;48.962;8.342;2023-04-08T02:50:13;4.82;;;4.43;;
33824;SDS011;20127;48.962;8.342;2023-04-08T02:53:15;4.85;;;4.38;;
33824;SDS011;20127;48.962;8.342;2023-04-08T02:56:17;5.38;;;4.97;;
33824;SDS011;20127;48.962;8.342;2023-04-08T02:59:20;5.43;;;4.72;;
33824;SDS011;20127;48.962;8.342;2023-04-08T03:02:21;5.57;;;5.10;;
33824;SDS011;20127;48.962;8.342;2023-04-08T03:05:25;5.20;;;4.80;;
33824;SDS011;20127;48.962;8.342;2023-04-08T03:08:27;5.00;;;4.60;;
33824;SDS011;20127;48.962;8.342;2023-04-08T03:11:29;5.15;;;4.75;;
33824;SDS011;20127;48.962;8.342;2023-04-08T03:14:32;4.78;;;4.43;;
33824;SDS011;20127;48.962;8.342;2023-04-08T03:17:34;5.45;;;4.97;;
33824;SDS011;20127;48.962;8.342;2023-04-08T03:20:35;4.63;;;4.28;;
33824;SDS011;20127;48.962;8.342;2023-04-08T03:23:37;5.10;;;4.70;;
33824;SDS011;20127;48.962;8.342;2023-04-08T03:26:39;5.15;;;4.72;;
33824;SDS011;20127;48.962;8.342;2023-04-08T03:29:42;5.00;;;4.45;;
33824;SDS011;20127;48.962;8.342;2023-04-08T03:32:44;5.80;;;5.30;;
33824;SDS011;20127;48.962;8.342;2023-04-08T03:35:46;6.00;;;5.50;;
33824;SDS011;20127;48.962;8.342;2023-04-08T03:38:48;4.63;;;4.32;;
33824;SDS011;20127;48.962;8.342;2023-04-08T03:41:49;5.05;;;4.65;;
33824;SDS011;20127;48.962;8.342;2023-04-08T03:44:52;5.85;;;5.38;;
33824;SDS011;20127;48.962;8.342;2023-04-08T03:47:54;6.65;;;5.95;;
33824;SDS011;20127;48.962;8.342;2023-04-08T03:50:56;8.02;;;5.38;;
33824;SDS011;20127;48.962;8.342;2023-04-08T03:53:57;6.55;;;5.45;;
33824;SDS011;20127;48.962;8.342;2023-04-08T03:56:59;6.55;;;6.05;;
33824;SDS011;20127;48.962;8.342;2023-04-08T04:00:02;7.10;;;6.40;;
33824;SDS011;20127;48.962;8.342;2023-04-08T04:03:04;6.38;;;5.88;;
33824;SDS011;20127;48.962;8.342;2023-04-08T04:06:06;6.40;;;5.80;;
33824;SDS011;20127;48.962;8.342;2023-04-08T04:09:08;6.20;;;5.70;;
33824;SDS011;20127;48.962;8.342;2023-04-08T04:12:10;7.20;;;6.60;;
33824;SDS011;20127;48.962;8.342;2023-04-08T04:15:13;6.93;;;6.10;;
33824;SDS011;20127;48.962;8.342;2023-04-08T04:18:15;5.75;;;5.28;;
33824;SDS011;20127;48.962;8.342;2023-04-08T04:21:16;7.22;;;6.68;;
33824;SDS011;20127;48.962;8.342;2023-04-08T04:24:18;6.63;;;6.03;;
33824;SDS011;20127;48.962;8.342;2023-04-08T04:27:20;5.55;;;5.05;;
33824;SDS011;20127;48.962;8.342;2023-04-08T04:30:23;5.63;;;5.22;;
33824;SDS011;20127;48.962;8.342;2023-04-08T04:33:25;6.72;;;6.22;;
33824;SDS011;20127;48.962;8.342;2023-04-08T04:36:26;6.57;;;6.07;;
33824;SDS011;20127;48.962;8.342;2023-04-08T04:39:28;6.53;;;6.03;;
33824;SDS011;20127;48.962;8.342;2023-04-08T04:42:30;7.88;;;7.28;;
33824;SDS011;20127;48.962;8.342;2023-04-08T04:45:33;7.32;;;6.72;;
33824;SDS011;20127;48.962;8.342;2023-04-08T04:48:35;6.88;;;6.38;;
33824;SDS011;20127;48.962;8.342;2023-04-08T04:51:36;6.18;;;5.68;;
33824;SDS011;20127;48.962;8.342;2023-04-08T04:54:38;5.85;;;5.15;;
33824;SDS011;20127;48.962;8.342;2023-04-08T04:57:40;6.35;;;5.85;;
33824;SDS011;20127;48.962;8.342;2023-04-08T05:00:44;7.10;;;6.50;;
33824;SDS011;20127;48.962;8.342;2023-04-08T05:03:46;6.65;;;6.05;;
33824;SDS011;20127;48.962;8.342;2023-04-08T05:06:48;5.78;;;5.38;;
33824;SDS011;20127;48.962;8.342;2023-04-08T05:09:50;6.03;;;5.53;;
33824;SDS011;20127;48.962;8.342;2023-04-08T05:12:51;6.30;;;5.80;;
33824;SDS011;20127;48.962;8.342;2023-04-08T05:15:54;7.10;;;6.57;;
33824;SDS011;20127;48.962;8.342;2023-04-08T05:18:56;8.40;;;7.72;;
33824;SDS011;20127;48.962;8.342;2023-04-08T05:21:58;7.25;;;6.70;;
33824;SDS011;20127;48.962;8.342;2023-04-08T05:25:00;8.07;;;7.47;;
33824;SDS011;20127;48.962;8.342;2023-04-08T05:28:02;8.68;;;7.43;;
33824;SDS011;20127;48.962;8.342;2023-04-08T05:31:05;7.90;;;7.30;;
33824;SDS011;20127;48.962;8.342;2023-04-08T05:34:07;6.75;;;6.25;;
33824;SDS011;20127;48.962;8.342;2023-04-08T05:37:09;6.18;;;5.68;;
33824;SDS011;20127;48.962;8.342;2023-04-08T05:40:11;6.90;;;6.32;;
33824;SDS011;20127;48.962;8.342;2023-04-08T05:43:13;7.65;;;6.90;;
33824;SDS011;20127;48.962;8.342;2023-04-08T05:46:16;8.07;;;7.38;;
33824;SDS011;20127;48.962;8.342;2023-04-08T05:49:18;7.57;;;6.97;;
33824;SDS011;20127;48.962;8.342;2023-04-08T05:52:20;8.52;;;7.82;;
33824;SDS011;20127;48.962;8.342;2023-04-08T05:55:21;7.97;;;7.28;;
33824;SDS011;20127;48.962;8.342;2023-04-08T05:58:23;9.52;;;8.73;;
33824;SDS011;20127;48.962;8.342;2023-04-08T06:01:26;10.13;;;9.30;;
33824;SDS011;20127;48.962;8.342;2023-04-08T06:04:28;8.63;;;8.00;;
33824;SDS011;20127;48.962;8.342;2023-04-08T06:07:30;9.02;;;8.23;;
33824;SDS011;20127;48.962;8.342;2023-04-08T06:10:32;8.35;;;7.75;;
33824;SDS011;20127;48.962;8.342;2023-04-08T06:13:34;8.73;;;8.02;;
33824;SDS011;20127;48.962;8.342;2023-04-08T06:16:38;8.85;;;8.23;;
33824;SDS011;20127;48.962;8.342;2023-04-08T06:19:40;9.10;;;8.40;;
33824;SDS011;20127;48.962;8.342;2023-04-08T06:22:41;8.02;;;7.30;;
33824;SDS011;20127;48.962;8.342;2023-04-08T06:25:43;8.65;;;7.97;;
33824;SDS011;20127;48.962;8.342;2023-04-08T06:28:45;8.30;;;7.60;;
33824;SDS011;20127;48.962;8.342;2023-04-08T06:31:48;8.27;;;7.57;;
33824;SDS011;20127;48.962;8.342;2023-04-08T06:34:50;9.02;;;8.32;;
33824;SDS011;20127;48.962;8.342;2023-04-08T06:37:51;8.15;;;7.45;;
33824;SDS011;20127;48.962;8.342;2023-04-08T06:40:53;8.40;;;7.60;;
33824;SDS011;20127;48.962;8.342;2023-04-08T06:43:55;8.23;;;7.60;;
33824;SDS011;20127;48.962;8.342;2023-04-08T06:46:58;7.63;;;7.03;;
33824;SDS011;20127;48.962;8.342;2023-04-08T06:50:00;8.35;;;7.72;;
33824;SDS011;20127;48.962;8.342;2023-04-08T06:53:01;6.95;;;6.45;;
33824;SDS011;20127;48.962;8.342;2023-04-08T06:56:03;8.40;;;7.80;;
33824;SDS011;20127;48.962;8.342;2023-04-08T06:59:05;8.10;;;7.40;;
33824;SDS011;20127;48.962;8.342;2023-04-08T07:02:08;9.05;;;8.25;;
33824;SDS011;20127;48.962;8.342;2023-04-08T07:05:10;8.30;;;7.60;;
33824;SDS011;20127;48.962;8.342;2023-04-08T07:08:17;7.63;;;7.03;;
33824;SDS011;20127;48.962;8.342;2023-04-08T07:11:30;7.32;;;6.78;;
33824;SDS011;20127;48.962;8.342;2023-04-08T07:14:33;6.60;;;6.00;;
33824;SDS011;20127;48.962;8.342;2023-04-08T07:17:36;7.22;;;5.35;;
33824;SDS011;20127;48.962;8.342;2023-04-08T07:20:38;5.40;;;5.00;;
33824;SDS011;20127;48.962;8.342;2023-04-08T07:23:41;5.55;;;5.15;;
33824;SDS011;20127;48.962;8.342;2023-04-08T07:26:42;4.97;;;4.57;;
33824;SDS011;20127;48.962;8.342;2023-04-08T07:29:44;5.55;;;5.00;;
33824;SDS011;20127;48.962;8.342;2023-04-08T07:32:48;4.65;;;4.35;;
33824;SDS011;20127;48.962;8.342;2023-04-08T07:35:50;4.18;;;3.88;;
33824;SDS011;20127;48.962;8.342;2023-04-08T07:38:51;3.88;;;3.63;;
33824;SDS011;20127;48.962;8.342;2023-04-08T07:41:53;4.32;;;4.03;;
33824;SDS011;20127;48.962;8.342;2023-04-08T07:44:55;4.97;;;4.60;;
33824;SDS011;20127;48.962;8.342;2023-04-08T07:47:58;3.90;;;3.60;;
33824;SDS011;20127;48.962;8.342;2023-04-08T07:51:02;4.70;;;4.40;;
33824;SDS011;20127;48.962;8.342;2023-04-08T07:54:04;4.63;;;4.32;;
33824;SDS011;20127;48.962;8.342;2023-04-08T07:57:05;4.97;;;4.68;;
33824;SDS011;20127;48.962;8.342;2023-04-08T08:00:07;4.80;;;4.50;;
33824;SDS011;20127;48.962;8.342;2023-04-08T08:03:11;4.40;;;4.10;;
33824;SDS011;20127;48.962;8.342;2023-04-08T08:06:12;4.68;;;4.13;;
33824;SDS011;20127;48.962;8.342;2023-04-08T08:09:14;4.80;;;4.50;;
33824;SDS011;20127;48.962;8.342;2023-04-08T08:12:16;4.30;;;4.00;;
33824;SDS011;20127;48.962;8.342;2023-04-08T08:15:18;4.88;;;4.57;;
33824;SDS011;20127;48.962;8.342;2023-04-08T08:18:21;4.40;;;4.10;;
33824;SDS011;20127;48.962;8.342;2023-04-08T08:21:22;4.80;;;4.47;;
33824;SDS011;20127;48.962;8.342;2023-04-08T08:24:25;4.93;;;4.63;;
33824;SDS011;20127;48.962;8.342;2023-04-08T08:27:27;4.07;;;3.78;;
33824;SDS011;20127;48.962;8.342;2023-04-08T08:30:28;4.18;;;3.88;;
33824;SDS011;20127;48.962;8.342;2023-04-08T08:33:31;3.72;;;3.42;;
33824;SDS011;20127;48.962;8.342;2023-04-08T08:36:34;4.32;;;4.03;;
33824;SDS011;20127;48.962;8.342;2023-04-08T08:39:36;4.90;;;3.83;;
33824;SDS011;20127;48.962;8.342;2023-04-08T08:42:37;4.78;;;4.47;;
33824;SDS011;20127;48.962;8.342;2023-04-08T08:45:40;4.20;;;3.90;;
33824;SDS011;20127;48.962;8.342;2023-04-08T08:48:43;4.63;;;4.30;;
33824;SDS011;20127;48.962;8.342;2023-04-08T08:51:45;4.15;;;3.85;;
33824;SDS011;20127;48.962;8.342;2023-04-08T08:54:55;3.92;;;3.63;;
33824;SDS011;20127;48.962;8.342;2023-04-08T08:57:58;4.00;;;3.70;;
33824;SDS011;20127;48.962;8.342;2023-04-08T09:01:01;3.30;;;3.10;;
33824;SDS011;20127;48.962;8.342;2023-04-08T09:04:07;3.80;;;3.60;;
33824;SDS011;20127;48.962;8.342;2023-04-08T09:10:13;4.25;;;3.95;;
33824;SDS011;20127;48.962;8.342;2023-04-08T09:13:15;3.85;;;3.55;;
33824;SDS011;20127;48.962;8.342;2023-04-08T09:16:17;3.88;;;3.65;;
33824;SDS011;20127;48.962;8.342;2023-04-08T09:19:21;4.13;;;3.83;;
33824;SDS011;20127;48.962;8.342;2023-04-08T09:22:22;3.35;;;3.15;;
33824;SDS011;20127;48.962;8.342;2023-04-08T09:25:25;4.10;;;3.80;;
33824;SDS011;20127;48.962;8.342;2023-04-08T09:28:28;3.78;;;3.58;;
33824;SDS011;20127;48.962;8.342;2023-04-08T09:31:31;3.58;;;3.28;;
33824;SDS011;20127;48.962;8.342;2023-04-08T09:34:35;3.35;;;3.15;;
33824;SDS011;20127;48.962;8.342;2023-04-08T09:37:39;3.60;;;2.83;;
33824;SDS011;20127;48.962;8.342;2023-04-08T09:40:40;3.78;;;3.47;;
33824;SDS011;20127;48.962;8.342;2023-04-08T09:43:46;3.70;;;3.40;;
33824;SDS011;20127;48.962;8.342;2023-04-08T09:46:53;3.13;;;2.92;;
33824;SDS011;20127;48.962;8.342;2023-04-08T09:50:02;3.55;;;3.25;;
33824;SDS011;20127;48.962;8.342;2023-04-08T09:53:08;3.60;;;3.40;;
33824;SDS011;20127;48.962;8.342;2023-04-08T09:56:14;5.25;;;4.88;;
33824;SDS011;20127;48.962;8.342;2023-04-08T09:59:20;4.82;;;4.05;;
33824;SDS011;20127;48.962;8.342;2023-04-08T10:02:28;3.05;;;2.85;;
33824;SDS011;20127;48.962;8.342;2023-04-08T10:05:32;3.80;;;3.50;;
33824;SDS011;20127;48.962;8.342;2023-04-08T10:08:37;3.53;;;3.33;;
33824;SDS011;20127;48.962;8.342;2023-04-08T10:11:39;4.20;;;3.90;;
33824;SDS011;20127;48.962;8.342;2023-04-08T10:14:41;5.35;;;3.85;;
33824;SDS011;20127;48.962;8.342;2023-04-08T10:21:35;4.68;;;4.20;;
33824;SDS011;20127;48.962;8.342;2023-04-08T10:24:39;3.90;;;3.58;;
33824;SDS011;20127;48.962;8.342;2023-04-08T10:31:26;5.00;;;4.60;;
33824;SDS011;20127;48.962;8.342;2023-04-08T10:34:27;4.95;;;4.60;;
33824;SDS011;20127;48.962;8.342;2023-04-08T10:37:31;4.00;;;3.78;;
33824;SDS011;20127;48.962;8.342;2023-04-08T10:40:34;4.70;;;4.38;;
33824;SDS011;20127;48.962;8.342;2023-04-08T10:43:37;5.38;;;4.18;;
33824;SDS011;20127;48.962;8.342;2023-04-08T10:46:39;5.53;;;5.13;;
33824;SDS011;20127;48.962;8.342;2023-04-08T10:49:42;5.00;;;4.70;;
33824;SDS011;20127;48.962;8.342;2023-04-08T10:52:48;5.78;;;5.30;;
33824;SDS011;20127;48.962;8.342;2023-04-08T10:55:51;5.68;;;5.25;;
33824;SDS011;20127;48.962;8.342;2023-04-08T10:58:53;5.45;;;4.95;;
33824;SDS011;20127;48.962;8.342;2023-04-08T11:01:55;8.32;;;7.25;;
33824;SDS011;20127;48.962;8.342;2023-04-08T11:05:00;3.25;;;3.05;;
33824;SDS011;20127;48.962;8.342;2023-04-08T11:08:03;2.45;;;2.35;;
33824;SDS011;20127;48.962;8.342;2023-04-08T11:11:05;3.50;;;3.30;;
33824;SDS011;20127;48.962;8.342;2023-04-08T11:14:09;3.75;;;3.47;;
33824;SDS011;20127;48.962;8.342;2023-04-08T11:17:13;4.40;;;4.10;;
33824;SDS011;20127;48.962;8.342;2023-04-08T11:20:15;5.18;;;3.75;;
33824;SDS011;20127;48.962;8.342;2023-04-08T11:23:19;4.10;;;3.80;;
33824;SDS011;20127;48.962;8.342;2023-04-08T11:26:24;4.22;;;3.85;;
33824;SDS011;20127;48.962;8.342;2023-04-08T11:29:37;4.15;;;3.85;;
33824;SDS011;20127;48.962;8.342;2023-04-08T11:32:39;4.47;;;4.13;;
33824;SDS011;20127;48.962;8.342;2023-04-08T11:35:41;4.45;;;4.15;;
33824;SDS011;20127;48.962;8.342;2023-04-08T11:38:45;5.22;;;4.80;;
33824;SDS011;20127;48.962;8.342;2023-04-08T11:41:47;5.45;;;5.05;;
33824;SDS011;20127;48.962;8.342;2023-04-08T11:44:49;3.97;;;3.67;;
33824;SDS011;20127;48.962;8.342;2023-04-08T11:47:53;3.88;;;3.58;;
33824;SDS011;20127;48.962;8.342;2023-04-08T11:51:01;4.85;;;4.45;;
33824;SDS011;20127;48.962;8.342;2023-04-08T11:54:05;4.55;;;4.18;;
33824;SDS011;20127;48.962;8.342;2023-04-08T11:57:07;4.28;;;3.97;;
33824;SDS011;20127;48.962;8.342;2023-04-08T12:00:09;4.75;;;4.35;;
33824;SDS011;20127;48.962;8.342;2023-04-08T12:03:12;4.88;;;4.28;;
33824;SDS011;20127;48.962;8.342;2023-04-08T12:06:13;5.13;;;4.72;;
33824;SDS011;20127;48.962;8.342;2023-04-08T12:09:16;5.00;;;4.60;;
33824;SDS011;20127;48.962;8.342;2023-04-08T12:12:18;4.72;;;4.32;;
33824;SDS011;20127;48.962;8.342;2023-04-08T12:15:20;5.40;;;4.40;;
33824;SDS011;20127;48.962;8.342;2023-04-08T12:18:22;4.35;;;4.05;;
33824;SDS011;20127;48.962;8.342;2023-04-08T12:21:24;4.90;;;4.40;;
33824;SDS011;20127;48.962;8.342;2023-04-08T12:24:28;4.90;;;4.47;;
33824;SDS011;20127;48.962;8.342;2023-04-08T12:27:30;4.85;;;4.45;;
33824;SDS011;20127;48.962;8.342;2023-04-08T12:30:32;5.40;;;5.00;;
33824;SDS011;20127;48.962;8.342;2023-04-08T12:33:35;4.90;;;4.50;;
33824;SDS011;20127;48.962;8.342;2023-04-08T12:36:37;4.82;;;4.47;;
33824;SDS011;20127;48.962;8.342;2023-04-08T12:39:40;5.85;;;4.97;;
33824;SDS011;20127;48.962;8.342;2023-04-08T12:42:42;4.72;;;4.43;;
33824;SDS011;20127;48.962;8.342;2023-04-08T12:45:43;5.45;;;5.05;;
33824;SDS011;20127;48.962;8.342;2023-04-08T12:48:45;5.32;;;4.90;;
33824;SDS011;20127;48.962;8.342;2023-04-08T12:51:47;4.93;;;4.53;;
33824;SDS011;20127;48.962;8.342;2023-04-08T12:54:50;5.30;;;4.90;;
33824;SDS011;20127;48.962;8.342;2023-04-08T12:57:52;5.10;;;4.70;;
33824;SDS011;20127;48.962;8.342;2023-04-08T13:00:54;4.72;;;4.43;;
33824;SDS011;20127;48.962;8.342;2023-04-08T13:03:55;5.22;;;4.80;;
33824;SDS011;20127;48.962;8.342;2023-04-08T13:06:57;4.50;;;4.20;;
33824;SDS011;20127;48.962;8.342;2023-04-08T13:13:44;4.50;;;4.10;;
33824;SDS011;20127;48.962;8.342;2023-04-08T13:17:02;4.80;;;4.28;;
33824;SDS011;20127;48.962;8.342;2023-04-08T13:20:12;4.28;;;3.97;;
33824;SDS011;20127;48.962;8.342;2023-04-08T13:23:57;4.93;;;4.60;;
33824;SDS011;20127;48.962;8.342;2023-04-08T13:27:17;4.68;;;4.35;;
33824;SDS011;20127;48.962;8.342;2023-04-08T13:30:29;4.50;;;4.20;;
33824;SDS011;20127;48.962;8.342;2023-04-08T13:56:56;4.30;;;3.95;;
33824;SDS011;20127;48.962;8.342;2023-04-08T13:59:58;4.57;;;4.28;;
33824;SDS011;20127;48.962;8.342;2023-04-08T14:03:00;6.95;;;5.18;;
33824;SDS011;20127;48.962;8.342;2023-04-08T14:06:02;3.63;;;3.33;;
33824;SDS011;20127;48.962;8.342;2023-04-08T14:09:05;3.65;;;3.35;;
33824;SDS011;20127;48.962;8.342;2023-04-08T14:12:06;4.43;;;4.13;;
33824;SDS011;20127;48.962;8.342;2023-04-08T14:15:08;4.05;;;3.65;;
33824;SDS011;20127;48.962;8.342;2023-04-08T14:18:10;4.00;;;3.53;;
33824;SDS011;20127;48.962;8.342;2023-04-08T14:21:12;3.80;;;3.50;;
33824;SDS011;20127;48.962;8.342;2023-04-08T14:24:16;4.10;;;3.70;;
33824;SDS011;20127;48.962;8.342;2023-04-08T14:27:18;4.55;;;4.15;;
33824;SDS011;20127;48.962;8.342;2023-04-08T14:30:19;3.92;;;3.63;;
33824;SDS011;20127;48.962;8.342;2023-04-08T14:33:21;2.72;;;2.53;;
33824;SDS011;20127;48.962;8.342;2023-04-08T14:36:23;3.17;;;2.75;;
33824;SDS011;20127;48.962;8.342;2023-04-08T14:39:26;2.78;;;2.58;;
33824;SDS011;20127;48.962;8.342;2023-04-08T14:42:28;3.17;;;2.75;;
33824;SDS011;20127;48.962;8.342;2023-04-08T14:45:30;3.00;;;2.80;;
33824;SDS011;20127;48.962;8.342;2023-04-08T14:48:32;3.50;;;3.20;;
33824;SDS011;20127;48.962;8.342;2023-04-08T14:51:33;2.92;;;2.72;;
33824;SDS011;20127;48.962;8.342;2023-04-08T14:54:38;3.10;;;2.80;;
33824;SDS011;20127;48.962;8.342;2023-04-08T14:57:40;2.63;;;2.40;;
33824;SDS011;20127;48.962;8.342;2023-04-08T15:00:41;2.83;;;2.58;;
33824;SDS011;20127;48.962;8.342;2023-04-08T15:03:44;3.53;;;2.97;;
33824;SDS011;20127;48.962;8.342;2023-04-08T15:06:46;3.53;;;3.25;;
33824;SDS011;20127;48.962;8.342;2023-04-08T15:09:50;3.05;;;2.85;;
33824;SDS011;20127;48.962;8.342;2023-04-08T15:12:53;3.33;;;3.13;;
33824;SDS011;20127;48.962;8.342;2023-04-08T15:15:55;3.28;;;3.08;;
33824;SDS011;20127;48.962;8.342;2023-04-08T15:18:59;3.30;;;3.08;;
33824;SDS011;20127;48.962;8.342;2023-04-08T15:22:02;3.35;;;3.05;;
33824;SDS011;20127;48.962;8.342;2023-04-08T15:29:45;3.28;;;3.00;;
33824;SDS011;20127;48.962;8.342;2023-04-08T15:34:03;3.17;;;2.97;;
33824;SDS011;20127;48.962;8.342;2023-04-08T15:37:53;2.85;;;2.65;;
33824;SDS011;20127;48.962;8.342;2023-04-08T15:56:53;4.05;;;3.75;;
33824;SDS011;20127;48.962;8.342;2023-04-08T15:59:56;3.63;;;3.35;;
33824;SDS011;20127;48.962;8.342;2023-04-08T16:02:57;4.55;;;4.18;;
33824;SDS011;20127;48.962;8.342;2023-04-08T16:05:59;4.13;;;3.83;;
33824;SDS011;20127;48.962;8.342;2023-04-08T16:09:01;4.75;;;4.10;;
33824;SDS011;20127;48.962;8.342;2023-04-08T16:12:05;4.53;;;4.13;;
33824;SDS011;20127;48.962;8.342;2023-04-08T16:15:07;3.83;;;3.53;;
33824;SDS011;20127;48.962;8.342;2023-04-08T16:18:09;4.90;;;4.50;;
33824;SDS011;20127;48.962;8.342;2023-04-08T16:21:12;4.50;;;4.18;;
33824;SDS011;20127;48.962;8.342;2023-04-08T16:24:14;3.90;;;3.60;;
33824;SDS011;20127;48.962;8.342;2023-04-08T16:27:17;3.80;;;3.50;;
33824;SDS011;20127;48.962;8.342;2023-04-08T16:30:19;3.55;;;3.30;;
33824;SDS011;20127;48.962;8.342;2023-04-08T16:33:20;4.10;;;3.78;;
33824;SDS011;20127;48.962;8.342;2023-04-08T16:36:28;5.05;;;4.55;;
33824;SDS011;20127;48.962;8.342;2023-04-08T16:39:30;4.00;;;3.70;;
33824;SDS011;20127;48.962;8.342;2023-04-08T16:42:33;5.45;;;4.95;;
33824;SDS011;20127;48.962;8.342;2023-04-08T16:45:35;4.22;;;3.92;;
33824;SDS011;20127;48.962;8.342;2023-04-08T16:48:38;4.72;;;4.32;;
33824;SDS011;20127;48.962;8.342;2023-04-08T16:51:40;4.45;;;4.15;;
33824;SDS011;20127;48.962;8.342;2023-04-08T16:54:42;6.28;;;4.07;;
33824;SDS011;20127;48.962;8.342;2023-04-08T16:57:46;4.88;;;3.60;;
33824;SDS011;20127;48.962;8.342;2023-04-08T17:00:48;6.07;;;4.40;;
33824;SDS011;20127;48.962;8.342;2023-04-08T17:03:50;3.95;;;3.60;;
33824;SDS011;20127;48.962;8.342;2023-04-08T17:06:51;4.10;;;3.83;;
33824;SDS011;20127;48.962;8.342;2023-04-08T17:09:53;3.95;;;3.65;;
33824;SDS011;20127;48.962;8.342;2023-04-08T17:12:56;4.25;;;3.95;;
33824;SDS011;20127;48.962;8.342;2023-04-08T17:15:58;3.72;;;3.42;;
33824;SDS011;20127;48.962;8.342;2023-04-08T17:19:02;3.45;;;3.20;;
33824;SDS011;20127;48.962;8.342;2023-04-08T17:22:04;3.58;;;3.13;;
33824;SDS011;20127;48.962;8.342;2023-04-08T17:25:06;3.20;;;2.90;;
33824;SDS011;20127;48.962;8.342;2023-04-08T17:28:10;7.68;;;3.65;;
33824;SDS011;20127;48.962;8.342;2023-04-08T17:31:12;3.85;;;3.08;;
33824;SDS011;20127;48.962;8.342;2023-04-08T17:34:14;4.90;;;3.28;;
33824;SDS011;20127;48.962;8.342;2023-04-08T17:37:16;3.20;;;3.00;;
33824;SDS011;20127;48.962;8.342;2023-04-08T17:40:19;4.05;;;3.22;;
33824;SDS011;20127;48.962;8.342;2023-04-08T17:43:37;3.50;;;2.75;;
33824;SDS011;20127;48.962;8.342;2023-04-08T17:46:42;3.03;;;2.72;;
33824;SDS011;20127;48.962;8.342;2023-04-08T17:49:43;3.03;;;2.83;;
33824;SDS011;20127;48.962;8.342;2023-04-08T17:52:48;3.47;;;3.17;;
33824;SDS011;20127;48.962;8.342;2023-04-08T17:55:50;4.43;;;3.35;;
33824;SDS011;20127;48.962;8.342;2023-04-08T17:58:55;3.15;;;2.95;;
33824;SDS011;20127;48.962;8.342;2023-04-08T18:01:56;3.67;;;3.38;;
33824;SDS011;20127;48.962;8.342;2023-04-08T18:04:58;3.20;;;2.55;;
33824;SDS011;20127;48.962;8.342;2023-04-08T18:08:00;3.40;;;3.13;;
33824;SDS011;20127;48.962;8.342;2023-04-08T18:11:03;3.72;;;2.80;;
33824;SDS011;20127;48.962;8.342;2023-04-08T18:14:06;2.65;;;2.45;;
33824;SDS011;20127;48.962;8.342;2023-04-08T18:17:08;3.28;;;2.83;;
33824;SDS011;20127;48.962;8.342;2023-04-08T18:20:10;4.60;;;3.60;;
33824;SDS011;20127;48.962;8.342;2023-04-08T18:23:11;2.85;;;2.65;;
33824;SDS011;20127;48.962;8.342;2023-04-08T18:26:13;2.78;;;2.50;;
33824;SDS011;20127;48.962;8.342;2023-04-08T18:29:16;2.92;;;2.72;;
33824;SDS011;20127;48.962;8.342;2023-04-08T18:32:18;4.15;;;3.75;;
33824;SDS011;20127;48.962;8.342;2023-04-08T18:35:20;3.40;;;2.97;;
33824;SDS011;20127;48.962;8.342;2023-04-08T18:38:21;2.60;;;2.30;;
33824;SDS011;20127;48.962;8.342;2023-04-08T18:41:23;4.90;;;3.22;;
33824;SDS011;20127;48.962;8.342;2023-04-08T18:44:26;2.80;;;2.47;;
33824;SDS011;20127;48.962;8.342;2023-04-08T18:47:28;2.63;;;2.42;;
33824;SDS011;20127;48.962;8.342;2023-04-08T18:50:30;2.95;;;2.65;;
33824;SDS011;20127;48.962;8.342;2023-04-08T18:53:32;3.53;;;3.00;;
33824;SDS011;20127;48.962;8.342;2023-04-08T18:56:34;2.67;;;2.35;;
33824;SDS011;20127;48.962;8.342;2023-04-08T18:59:37;3.42;;;3.13;;
33824;SDS011;20127;48.962;8.342;2023-04-08T19:02:38;3.30;;;3.10;;
33824;SDS011;20127;48.962;8.342;2023-04-08T19:05:40;3.50;;;3.20;;
33824;SDS011;20127;48.962;8.342;2023-04-08T19:08:42;3.85;;;2.22;;
33824;SDS011;20127;48.962;8.342;2023-04-08T19:11:45;2.50;;;2.30;;
33824;SDS011;20127;48.962;8.342;2023-04-08T19:14:56;1.98;;;1.88;;
33824;SDS011;20127;48.962;8.342;2023-04-08T19:18:03;2.67;;;2.47;;
33824;SDS011;20127;48.962;8.342;2023-04-08T19:21:06;7.28;;;6.55;;
33824;SDS011;20127;48.962;8.342;2023-04-08T19:24:08;4.82;;;4.53;;
33824;SDS011;20127;48.962;8.342;2023-04-08T19:27:10;3.70;;;3.10;;